Time;durP1;ratioP1;P1;durP2;ratioP2;P2;SDS_P1;SDS_P2;PMS_P1;PMS_P2;Temp;Humidity;BMP_temperature;BMP_pressure;BME280_temperature;BME280_humidity;BME280_pressure;Samples;Min_cycle;Max_cycle;Signal;HPM_P1;HPM_P2
2023/04/09 00:02:27;;;;;;;12.65;8.27;;;;;;;8.73;54.08;100781.69;10277363;28;20190;-60
2023/04/09 00:07:29;;;;;;;10.55;8.48;;;;;;;8.81;54.09;100781.41;10296321;28;20046;-60
2023/04/09 00:12:30;;;;;;;11.27;8.90;;;;;;;8.77;53.78;100777.22;10274851;28;20070;-60
2023/04/09 00:17:32;;;;;;;11.43;8.98;;;;;;;8.73;53.68;100770.38;10266134;28;20075;-60
2023/04/09 00:22:34;;;;;;;11.00;7.95;;;;;;;8.61;53.92;100763.03;10265442;28;20548;-60
2023/04/09 00:27:36;;;;;;;10.85;8.57;;;;;;;8.59;53.69;100768.31;10265176;28;20057;-60
2023/04/09 00:32:38;;;;;;;12.18;8.93;;;;;;;8.47;53.49;100763.56;10263284;28;20786;-60
2023/04/09 00:37:40;;;;;;;13.65;8.88;;;;;;;8.41;53.16;100752.53;10263547;28;20050;-59
2023/04/09 00:42:41;;;;;;;12.40;9.02;;;;;;;8.34;53.36;100756.28;10264077;28;20137;-60
2023/04/09 00:47:45;;;;;;;11.15;8.02;;;;;;;8.28;53.75;100751.31;10263961;28;20050;-60
2023/04/09 00:52:47;;;;;;;13.60;9.40;;;;;;;8.30;53.87;100755.56;10263190;28;20055;-59
2023/04/09 00:57:48;;;;;;;13.82;9.57;;;;;;;8.41;54.04;100752.53;10271370;28;20195;-60
2023/04/09 01:02:51;;;;;;;14.50;9.98;;;;;;;8.55;54.00;100761.53;10277716;28;20141;-60
2023/04/09 01:08:07;;;;;;;14.18;9.10;;;;;;;8.49;54.12;100761.75;10278036;28;20148;-59
2023/04/09 01:13:39;;;;;;;14.55;9.70;;;;;;;8.45;54.22;100751.50;10263738;28;20370;-60
2023/04/09 01:18:58;;;;;;;13.67;9.77;;;;;;;8.33;54.85;100750.22;10313303;28;20073;-60
2023/04/09 01:24:18;;;;;;;12.80;8.95;;;;;;;8.21;55.40;100745.47;10284912;28;20399;-59
2023/04/09 01:29:22;;;;;;;13.18;10.05;;;;;;;8.18;54.94;100742.97;10262224;28;20046;-60
2023/04/09 01:34:27;;;;;;;15.98;10.38;;;;;;;8.16;54.99;100752.59;10263436;28;20133;-60
2023/04/09 01:39:30;;;;;;;13.70;9.25;;;;;;;8.23;54.47;100755.81;10273869;28;20061;-60
2023/04/09 01:44:32;;;;;;;13.77;9.85;;;;;;;8.21;54.83;100748.06;10262574;28;20049;-60
2023/04/09 01:49:35;;;;;;;12.43;9.52;;;;;;;8.19;54.57;100756.84;10299795;28;20038;-60
2023/04/09 01:54:36;;;;;;;17.75;9.77;;;;;;;8.10;54.54;100759.78;10283853;28;20366;-60
2023/04/09 01:59:38;;;;;;;13.82;10.05;;;;;;;8.11;55.43;100756.28;10281591;28;20603;-60
2023/04/09 02:04:45;;;;;;;13.45;10.02;;;;;;;8.16;55.20;100760.41;10296984;28;20247;-59
2023/04/09 02:09:48;;;;;;;14.65;10.68;;;;;;;8.23;54.70;100763.63;10293000;28;20045;-60
2023/04/09 02:14:51;;;;;;;15.02;10.98;;;;;;;8.22;55.29;100765.38;10290594;28;20435;-60
2023/04/09 02:19:53;;;;;;;13.45;10.18;;;;;;;8.23;55.33;100761.03;10278188;28;20570;-59
2023/04/09 02:24:55;;;;;;;12.90;9.80;;;;;;;8.24;55.64;100757.53;10286918;28;20047;-60
2023/04/09 02:29:56;;;;;;;14.25;10.27;;;;;;;8.22;55.63;100759.34;10290351;28;20043;-58
2023/04/09 02:34:58;;;;;;;13.77;9.60;;;;;;;8.20;55.98;100762.00;10278458;28;20056;-59
2023/04/09 02:40:00;;;;;;;14.20;10.20;;;;;;;8.11;56.05;100764.94;10296867;28;20054;-59
2023/04/09 02:45:02;;;;;;;13.93;9.75;;;;;;;7.97;56.40;100757.59;10279524;28;20050;-59
2023/04/09 02:50:06;;;;;;;14.48;10.43;;;;;;;8.02;56.12;100762.63;10321820;28;20562;-58
2023/04/09 02:55:11;;;;;;;13.80;10.57;;;;;;;7.91;56.19;100759.56;10273855;28;20039;-58
2023/04/09 03:00:13;;;;;;;15.48;10.82;;;;;;;7.92;56.46;100759.50;10293071;28;20085;-58
2023/04/09 03:05:14;;;;;;;14.57;10.80;;;;;;;7.85;56.14;100755.41;10267064;28;20054;-59
2023/04/09 03:10:16;;;;;;;13.27;9.93;;;;;;;7.84;56.67;100748.53;10293956;28;20042;-58
2023/04/09 03:15:18;;;;;;;16.10;10.73;;;;;;;7.85;56.48;100749.38;10276414;28;20061;-59
2023/04/09 03:20:20;;;;;;;14.07;10.35;;;;;;;7.77;56.64;100748.81;10309195;28;20058;-59
2023/04/09 03:25:22;;;;;;;15.93;11.40;;;;;;;7.71;56.83;100739.44;10276359;28;20062;-59
2023/04/09 03:30:28;;;;;;;17.15;11.05;;;;;;;7.61;57.14;100742.44;10278958;28;20046;-58
2023/04/09 03:35:31;;;;;;;16.95;11.40;;;;;;;7.47;57.40;100740.28;10288179;28;20088;-58
2023/04/09 03:40:35;;;;;;;18.33;11.70;;;;;;;7.44;57.61;100735.19;10310662;28;20046;-59
2023/04/09 03:45:37;;;;;;;15.48;11.55;;;;;;;7.40;57.42;100732.75;10291130;28;20814;-59
2023/04/09 03:50:53;;;;;;;14.00;10.65;;;;;;;7.37;57.76;100727.63;10264443;28;20142;-59
2023/04/09 03:56:03;;;;;;;16.80;11.05;;;;;;;7.17;57.80;100733.53;10279703;28;20050;-58
2023/04/09 04:01:07;;;;;;;17.15;11.18;;;;;;;7.06;58.09;100727.84;10266387;28;20135;-59
2023/04/09 04:06:21;;;;;;;16.88;10.93;;;;;;;7.11;58.23;100733.72;10291131;28;20050;-58
2023/04/09 04:11:38;;;;;;;15.43;11.10;;;;;;;7.21;58.38;100737.72;10283516;28;20495;-59
2023/04/09 04:16:40;;;;;;;17.17;11.30;;;;;;;7.19;58.50;100735.19;10264389;28;20043;-59
2023/04/09 04:21:43;;;;;;;14.50;10.65;;;;;;;7.16;58.55;100735.25;10268659;28;20061;-59
2023/04/09 04:26:45;;;;;;;15.57;11.35;;;;;;;7.10;58.79;100745.03;10282465;28;20066;-58
2023/04/09 04:31:51;;;;;;;14.70;10.85;;;;;;;6.93;59.19;100742.97;10299088;28;20581;-59
2023/04/09 04:36:56;;;;;;;16.98;11.75;;;;;;;6.87;59.55;100742.31;10264150;28;20053;-59
2023/04/09 04:42:00;;;;;;;18.17;11.80;;;;;;;6.77;59.39;100746.09;10314774;28;20050;-59
2023/04/09 04:47:02;;;;;;;17.23;11.95;;;;;;;6.66;59.59;100748.19;10269292;28;20053;-58
2023/04/09 04:52:05;;;;;;;20.25;13.48;;;;;;;6.51;59.62;100753.84;10282840;28;20049;-59
2023/04/09 04:57:08;;;;;;;18.08;12.38;;;;;;;6.31;59.90;100755.28;10278741;28;20042;-58
2023/04/09 05:02:13;;;;;;;19.80;12.90;;;;;;;6.21;60.14;100761.63;10322483;28;20058;-58
2023/04/09 05:07:44;;;;;;;18.63;12.63;;;;;;;6.08;60.35;100765.44;10298511;28;20064;-59
2023/04/09 05:12:46;;;;;;;23.70;15.20;;;;;;;6.11;60.26;100764.50;10262035;28;20081;-59
2023/04/09 05:17:56;;;;;;;24.80;16.48;;;;;;;6.12;60.10;100756.66;10295418;28;20042;-59
2023/04/09 05:22:59;;;;;;;23.77;16.05;;;;;;;6.10;59.76;100760.22;10285858;28;20519;-59
2023/04/09 05:28:05;;;;;;;22.23;14.65;;;;;;;6.16;59.72;100760.06;10279770;28;20050;-59
2023/04/09 05:33:09;;;;;;;23.70;14.90;;;;;;;6.27;59.66;100761.47;10285507;28;20043;-59
2023/04/09 05:38:12;;;;;;;23.13;15.50;;;;;;;6.41;59.25;100763.66;10286454;28;20189;-59
2023/04/09 05:43:16;;;;;;;22.83;15.57;;;;;;;6.49;59.06;100759.06;10294256;28;20049;-59
2023/04/09 05:48:19;;;;;;;22.50;14.60;;;;;;;6.66;58.92;100759.44;10300764;28;20265;-59
2023/04/09 05:53:22;;;;;;;22.30;13.98;;;;;;;6.67;58.14;100765.50;10282137;28;20065;-59
2023/04/09 05:58:24;;;;;;;20.00;13.55;;;;;;;6.56;58.68;100767.53;10318631;28;20042;-59
2023/04/09 06:03:27;;;;;;;20.98;14.75;;;;;;;6.71;58.74;100775.75;10273829;28;20823;-59
2023/04/09 06:08:29;;;;;;;20.95;14.75;;;;;;;6.80;58.63;100770.25;10287044;28;20163;-59
2023/04/09 06:13:31;;;;;;;21.92;14.80;;;;;;;6.89;58.46;100769.13;10272430;28;20043;-59
2023/04/09 06:18:33;;;;;;;18.38;12.43;;;;;;;7.11;58.42;100772.75;10268327;28;20053;-59
2023/04/09 06:23:36;;;;;;;18.17;13.18;;;;;;;7.33;57.94;100773.72;10280522;28;20451;-59
2023/04/09 06:28:37;;;;;;;19.23;13.68;;;;;;;7.20;58.07;100767.25;10293304;28;20046;-59
2023/04/09 06:33:39;;;;;;;20.83;13.13;;;;;;;7.16;58.09;100773.44;10264389;28;20562;-59
2023/04/09 06:38:41;;;;;;;19.60;13.07;;;;;;;7.27;57.87;100779.13;10265175;28;20133;-59
2023/04/09 06:43:43;;;;;;;18.05;13.57;;;;;;;7.51;57.64;100780.09;10266652;28;20137;-59
2023/04/09 06:48:46;;;;;;;19.05;13.70;;;;;;;7.64;57.01;100784.81;10258705;28;20058;-59
2023/04/09 06:53:48;;;;;;;20.40;13.80;;;;;;;7.60;56.68;100785.84;10251471;28;20051;-59
2023/04/09 06:58:50;;;;;;;19.13;13.80;;;;;;;7.62;56.57;100783.16;10255047;28;20677;-60
2023/04/09 07:03:52;;;;;;;21.05;13.25;;;;;;;7.69;56.63;100782.06;10258554;28;20724;-59
2023/04/09 07:08:55;;;;;;;19.75;13.85;;;;;;;7.74;56.43;100782.75;10256492;28;20234;-59
2023/04/09 07:13:58;;;;;;;20.73;14.40;;;;;;;7.94;56.19;100777.69;10276011;28;20046;-59
2023/04/09 07:19:00;;;;;;;18.92;14.00;;;;;;;8.01;55.97;100782.66;10273258;28;20136;-59
2023/04/09 07:24:02;;;;;;;19.35;14.07;;;;;;;7.98;56.15;100782.75;10276045;28;20050;-59
2023/04/09 07:29:03;;;;;;;18.67;13.07;;;;;;;8.19;55.83;100788.09;10261380;28;20146;-60
2023/04/09 07:34:05;;;;;;;19.58;13.82;;;;;;;8.38;55.41;100784.78;10255751;28;20718;-59
2023/04/09 07:39:07;;;;;;;19.70;13.60;;;;;;;8.65;54.87;100788.09;10260202;28;20146;-59
2023/04/09 07:44:09;;;;;;;22.38;13.82;;;;;;;9.42;53.90;100791.03;10262873;28;20254;-60
2023/04/09 07:49:11;;;;;;;20.90;14.95;;;;;;;10.17;52.31;100783.50;10257352;28;20153;-60
2023/04/09 07:54:13;;;;;;;19.83;14.95;;;;;;;11.03;50.76;100769.81;10259479;28;20050;-60
2023/04/09 07:59:15;;;;;;;20.33;14.85;;;;;;;11.58;49.24;100773.19;10258974;28;20400;-60
2023/04/09 08:04:16;;;;;;;19.25;14.73;;;;;;;11.97;49.04;100763.31;10259303;28;20432;-60
2023/04/09 08:09:19;;;;;;;19.88;15.23;;;;;;;12.08;47.36;100770.63;10254579;28;20054;-60
2023/04/09 08:14:21;;;;;;;18.55;14.40;;;;;;;11.81;47.57;100761.56;10264300;28;20129;-60
2023/04/09 08:19:23;;;;;;;21.02;14.98;;;;;;;12.26;47.69;100761.75;10274517;28;20054;-60
2023/04/09 08:24:25;;;;;;;18.17;14.27;;;;;;;12.08;46.98;100771.47;10258825;28;20043;-60
2023/04/09 08:29:27;;;;;;;19.52;15.25;;;;;;;12.71;46.47;100766.31;10259087;28;20039;-60
2023/04/09 08:34:29;;;;;;;20.38;15.13;;;;;;;13.22;46.17;100771.28;10260409;28;20075;-60
2023/04/09 08:39:30;;;;;;;18.08;14.43;;;;;;;13.47;44.86;100774.22;10258023;28;20210;-59
2023/04/09 08:44:32;;;;;;;19.98;14.20;;;;;;;13.43;45.58;100772.69;10259549;28;20411;-60
2023/04/09 08:49:34;;;;;;;18.83;14.63;;;;;;;13.52;44.46;100763.41;10254373;28;20046;-60
2023/04/09 08:54:36;;;;;;;20.90;15.18;;;;;;;13.59;44.35;100768.25;10256372;28;20051;-60
2023/04/09 08:59:38;;;;;;;17.48;14.10;;;;;;;13.76;43.57;100761.97;10260305;28;20090;-60
2023/04/09 09:04:47;;;;;;;19.05;14.48;;;;;;;13.51;43.25;100765.22;10271761;28;20685;-60
2023/04/09 09:10:02;;;;;;;16.63;13.85;;;;;;;13.91;43.11;100757.56;10264777;28;20153;-59
2023/04/09 09:15:05;;;;;;;18.60;14.60;;;;;;;13.98;43.05;100758.91;10269171;28;20093;-59
2023/04/09 09:20:26;;;;;;;18.20;14.63;;;;;;;14.53;42.28;100765.13;10270492;28;20051;-60
2023/04/09 09:25:29;;;;;;;18.90;13.95;;;;;;;14.51;43.27;100759.09;10266978;28;20050;-61
2023/04/09 09:30:33;;;;;;;18.27;14.68;;;;;;;14.49;43.04;100753.91;10267136;28;20189;-60
2023/04/09 09:35:49;;;;;;;14.98;13.00;;;;;;;15.37;40.59;100750.81;10261331;28;20134;-60
2023/04/09 09:40:51;;;;;;;17.05;14.35;;;;;;;15.50;40.73;100751.72;10270055;28;20133;-60
2023/04/09 09:45:53;;;;;;;17.48;13.52;;;;;;;15.46;40.64;100744.94;10264192;28;20455;-60
2023/04/09 09:50:55;;;;;;;16.83;12.90;;;;;;;15.17;41.30;100738.94;10261022;28;20041;-60
2023/04/09 09:55:59;;;;;;;17.67;13.30;;;;;;;14.60;41.26;100737.44;10255076;28;20706;-60
2023/04/09 10:01:02;;;;;;;14.88;13.30;;;;;;;14.55;42.23;100739.56;10263764;28;20046;-60
2023/04/09 10:06:08;;;;;;;15.40;13.40;;;;;;;14.09;42.53;100738.88;10255398;28;20076;-60
2023/04/09 10:11:11;;;;;;;12.77;10.60;;;;;;;14.11;41.44;100728.25;10252461;28;20384;-60
2023/04/09 10:16:14;;;;;;;13.10;10.80;;;;;;;14.07;41.25;100722.34;10278245;28;20073;-60
2023/04/09 10:21:34;;;;;;;13.25;10.23;;;;;;;14.02;41.07;100718.31;10283579;28;20055;-60
2023/04/09 10:26:39;;;;;;;11.97;9.07;;;;;;;14.43;40.26;100714.78;10259522;28;20480;-60
2023/04/09 10:32:05;;;;;;;9.27;8.05;;;;;;;14.18;40.04;100717.28;10259912;28;20049;-60
2023/04/09 10:37:09;;;;;;;10.27;8.13;;;;;;;14.21;41.35;100714.44;10260150;28;20093;-60
2023/04/09 10:42:13;;;;;;;8.27;6.70;;;;;;;14.49;39.82;100713.63;10259527;28;20388;-60
2023/04/09 10:47:31;;;;;;;7.30;6.32;;;;;;;14.26;37.75;100708.91;10263146;28;20039;-60
2023/04/09 10:52:33;;;;;;;7.82;6.18;;;;;;;14.21;39.45;100708.34;10221608;28;1137103;-60
2023/04/09 10:57:35;;;;;;;6.95;5.75;;;;;;;14.10;38.15;100705.53;10261576;28;20392;-60
2023/04/09 11:02:45;;;;;;;7.13;5.88;;;;;;;14.17;39.62;100710.31;10262057;28;20043;-60
2023/04/09 11:08:11;;;;;;;7.33;6.20;;;;;;;14.59;37.25;100694.47;10260400;28;20074;-61
2023/04/09 11:13:15;;;;;;;7.32;5.93;;;;;;;14.85;39.00;100702.50;10261236;28;20463;-61
2023/04/09 11:18:22;;;;;;;6.55;5.43;;;;;;;14.62;37.14;100700.50;10258478;28;20053;-61
2023/04/09 11:23:24;;;;;;;8.00;5.50;;;;;;;14.41;38.17;100698.25;10258959;28;20046;-60
2023/04/09 11:28:26;;;;;;;5.97;4.60;;;;;;;14.48;37.24;100699.56;10261426;28;20042;-61
2023/04/09 11:33:32;;;;;;;5.97;4.95;;;;;;;14.37;37.09;100694.13;10260792;28;20134;-61
2023/04/09 11:38:37;;;;;;;6.32;5.07;;;;;;;14.49;37.09;100692.56;10259631;28;20423;-60
2023/04/09 11:43:40;;;;;;;7.70;5.45;;;;;;;14.52;36.34;100697.59;10259028;28;20439;-61
2023/04/09 11:48:42;;;;;;;6.28;5.07;;;;;;;14.52;36.80;100701.09;10259335;28;20054;-61
2023/04/09 11:53:44;;;;;;;6.18;4.85;;;;;;;14.47;36.44;100700.50;10260360;28;20740;-60
2023/04/09 11:58:47;;;;;;;6.68;5.10;;;;;;;14.57;36.36;100691.09;10262186;28;20043;-61
2023/04/09 12:03:54;;;;;;;6.75;5.43;;;;;;;14.47;35.62;100687.34;10257997;28;20623;-61
2023/04/09 12:08:57;;;;;;;7.15;5.10;;;;;;;14.68;35.35;100682.50;10259906;28;20046;-61
2023/04/09 12:14:01;;;;;;;6.13;4.85;;;;;;;15.00;35.33;100677.78;10269583;28;20064;-61
2023/04/09 12:19:08;;;;;;;8.68;5.32;;;;;;;15.22;34.33;100678.06;10264368;28;20047;-61
2023/04/09 12:24:09;;;;;;;7.25;5.47;;;;;;;15.29;35.31;100674.03;10259905;28;20039;-61
2023/04/09 12:29:20;;;;;;;6.43;4.93;;;;;;;15.31;34.02;100672.13;10258291;28;20049;-61
2023/04/09 12:34:21;;;;;;;6.25;4.90;;;;;;;15.32;34.37;100664.16;10273523;28;20170;-61
2023/04/09 12:39:23;;;;;;;5.93;4.65;;;;;;;15.58;34.11;100669.47;10254720;28;20038;-61
2023/04/09 12:44:25;;;;;;;5.80;4.68;;;;;;;15.42;34.33;100664.38;10252726;28;20714;-60
2023/04/09 12:49:27;;;;;;;8.15;4.93;;;;;;;15.68;34.50;100659.97;10273202;28;20038;-61
2023/04/09 12:54:28;;;;;;;5.60;4.68;;;;;;;15.52;34.34;100670.72;10261230;28;20059;-61
2023/04/09 12:59:30;;;;;;;5.35;4.25;;;;;;;15.52;33.53;100662.81;10258667;28;20039;-61
2023/04/09 13:04:32;;;;;;;6.57;4.50;;;;;;;15.72;33.38;100657.00;10258936;28;20055;-61
2023/04/09 13:09:34;;;;;;;7.05;5.07;;;;;;;15.69;32.94;100654.59;10253459;28;20294;-61
2023/04/09 13:14:38;;;;;;;6.03;5.13;;;;;;;15.58;32.21;100651.00;10254608;28;20039;-60
2023/04/09 13:19:40;;;;;;;6.68;4.85;;;;;;;15.46;33.45;100657.09;10257475;28;20047;-61
2023/04/09 13:24:43;;;;;;;6.10;4.38;;;;;;;15.47;32.68;100656.97;10255647;28;20174;-61
2023/04/09 13:29:45;;;;;;;6.18;4.82;;;;;;;15.64;32.76;100645.31;10255469;28;20503;-61
2023/04/09 13:34:47;;;;;;;5.88;5.18;;;;;;;15.50;33.00;100637.50;10255304;28;20039;-60
2023/04/09 13:39:50;;;;;;;5.97;4.80;;;;;;;15.69;33.72;100633.50;10259343;28;20051;-61
2023/04/09 13:44:52;;;;;;;6.85;5.32;;;;;;;15.53;33.56;100624.94;10258208;28;20043;-61
2023/04/09 13:49:54;;;;;;;6.30;5.30;;;;;;;15.51;33.42;100624.22;10264595;28;20050;-60
2023/04/09 13:54:56;;;;;;;6.65;5.05;;;;;;;15.41;33.15;100620.50;10256099;28;20057;-60
2023/04/09 14:00:00;;;;;;;6.07;4.53;;;;;;;15.32;33.88;100629.03;10266598;28;20050;-60
2023/04/09 14:05:05;;;;;;;7.25;5.93;;;;;;;15.30;34.32;100629.16;10265379;28;20128;-60
2023/04/09 14:10:07;;;;;;;6.95;5.88;;;;;;;15.17;35.08;100627.44;10263752;28;20055;-60
2023/04/09 14:15:09;;;;;;;6.82;5.93;;;;;;;15.11;34.53;100622.59;10275191;28;20047;-60
2023/04/09 14:20:11;;;;;;;7.43;5.75;;;;;;;14.96;34.68;100615.72;10284870;28;20186;-60
2023/04/09 14:25:13;;;;;;;6.55;5.38;;;;;;;15.01;34.09;100610.97;10266431;28;20042;-60
2023/04/09 14:30:16;;;;;;;6.53;5.40;;;;;;;15.00;33.88;100611.94;10260983;28;20522;-60
2023/04/09 14:35:18;;;;;;;6.70;5.30;;;;;;;14.95;34.07;100609.59;10262992;28;20039;-60
2023/04/09 14:40:20;;;;;;;8.40;6.13;;;;;;;14.82;34.92;100621.06;10264796;28;20746;-60
2023/04/09 14:45:22;;;;;;;7.32;5.85;;;;;;;14.57;35.32;100616.56;10264171;28;20113;-60
2023/04/09 14:50:24;;;;;;;7.40;5.47;;;;;;;14.48;34.98;100607.44;10260066;28;20811;-60
2023/04/09 14:55:26;;;;;;;7.03;5.72;;;;;;;14.43;36.05;100599.00;10259952;28;20098;-61
2023/04/09 15:00:28;;;;;;;5.95;5.18;;;;;;;14.62;34.44;100605.72;10260907;28;20073;-60
2023/04/09 15:05:30;;;;;;;6.40;5.00;;;;;;;14.55;34.34;100600.03;10262782;28;20046;-61
2023/04/09 15:10:32;;;;;;;6.65;5.22;;;;;;;14.55;34.19;100598.22;10260015;28;20503;-60
2023/04/09 15:15:34;;;;;;;6.57;4.97;;;;;;;14.76;32.90;100597.78;10255649;28;20070;-60
2023/04/09 15:20:37;;;;;;;6.43;4.55;;;;;;;14.55;34.05;100606.13;10256510;28;20076;-60
2023/04/09 15:25:39;;;;;;;6.47;4.97;;;;;;;14.31;33.51;100602.41;10260577;28;20047;-60
2023/04/09 15:30:41;;;;;;;5.97;4.65;;;;;;;14.40;33.38;100595.72;10257912;28;20059;-61
2023/04/09 15:35:43;;;;;;;6.47;4.82;;;;;;;14.64;32.92;100586.25;10259486;28;20050;-60
2023/04/09 15:40:45;;;;;;;6.95;4.93;;;;;;;14.60;32.61;100579.50;10261752;28;20526;-60
2023/04/09 15:45:47;;;;;;;6.95;4.80;;;;;;;14.94;32.85;100578.13;10257318;28;20481;-60
2023/04/09 15:50:49;;;;;;;7.60;5.13;;;;;;;15.08;32.46;100568.31;10260261;28;20137;-61
2023/04/09 15:55:51;;;;;;;7.22;5.20;;;;;;;15.36;33.79;100562.84;10259684;28;20054;-61
2023/04/09 16:00:52;;;;;;;6.47;4.82;;;;;;;15.27;32.48;100558.19;10255097;28;20422;-61
2023/04/09 16:05:55;;;;;;;6.28;4.80;;;;;;;15.17;32.82;100556.28;10266462;28;20046;-61
2023/04/09 16:10:57;;;;;;;6.95;4.97;;;;;;;14.88;32.87;100560.91;10253723;28;20043;-61
2023/04/09 16:15:58;;;;;;;5.45;4.47;;;;;;;14.91;32.69;100557.22;10268926;28;20053;-61
2023/04/09 16:21:00;;;;;;;5.88;4.82;;;;;;;14.63;33.26;100557.41;10271567;28;20078;-61
2023/04/09 16:26:02;;;;;;;6.03;5.15;;;;;;;14.64;33.52;100557.28;10255224;28;20672;-61
2023/04/09 16:31:04;;;;;;;5.70;4.72;;;;;;;14.36;32.93;100555.63;10287787;28;20388;-61
2023/04/09 16:36:07;;;;;;;6.40;5.20;;;;;;;14.19;33.33;100553.22;10259979;28;20051;-60
2023/04/09 16:41:08;;;;;;;6.70;4.97;;;;;;;14.24;33.81;100555.56;10257506;28;20050;-61
2023/04/09 16:46:10;;;;;;;6.30;5.53;;;;;;;15.24;33.95;100552.31;10246312;28;20524;-61
2023/04/09 16:51:12;;;;;;;8.43;5.68;;;;;;;15.70;33.30;100542.03;10252488;28;20498;-61
2023/04/09 16:56:15;;;;;;;6.47;4.90;;;;;;;15.06;32.81;100550.94;10249014;28;20050;-61
2023/04/09 17:01:17;;;;;;;6.88;5.47;;;;;;;14.89;33.79;100559.13;10243848;28;20226;-61
2023/04/09 17:06:19;;;;;;;6.40;5.28;;;;;;;14.63;34.58;100553.00;10239795;28;20070;-61
2023/04/09 17:11:22;;;;;;;6.03;5.13;;;;;;;14.39;34.84;100552.78;10255444;28;20427;-61
2023/04/09 17:16:24;;;;;;;6.25;4.93;;;;;;;14.21;34.59;100551.34;10247365;28;20437;-61
2023/04/09 17:21:26;;;;;;;6.22;5.00;;;;;;;14.00;36.40;100555.38;10259286;28;20054;-60
2023/04/09 17:26:29;;;;;;;5.97;4.82;;;;;;;13.88;35.68;100557.94;10251726;28;20042;-60
2023/04/09 17:31:31;;;;;;;6.55;5.00;;;;;;;13.71;35.15;100549.31;10260971;28;20097;-61
2023/04/09 17:36:33;;;;;;;6.55;4.97;;;;;;;13.59;35.87;100546.63;10258070;28;20059;-60
2023/04/09 17:41:35;;;;;;;6.30;4.93;;;;;;;13.36;35.50;100555.88;10254841;28;20039;-60
2023/04/09 17:46:37;;;;;;;7.22;5.22;;;;;;;13.11;36.74;100555.69;10255271;28;20500;-61
2023/04/09 17:51:40;;;;;;;6.50;5.05;;;;;;;12.81;37.21;100558.34;10264892;28;20794;-60
2023/04/09 17:56:42;;;;;;;7.75;5.25;;;;;;;12.52;38.50;100569.69;10266948;28;20039;-60
2023/04/09 18:01:44;;;;;;;6.63;5.18;;;;;;;12.23;39.36;100560.00;10257079;28;20047;-61
2023/04/09 18:06:46;;;;;;;8.27;5.38;;;;;;;11.89;39.77;100558.41;10270477;28;20043;-61
2023/04/09 18:11:52;;;;;;;7.65;5.50;;;;;;;11.64;39.92;100562.47;10255356;28;20448;-60
2023/04/09 18:16:53;;;;;;;8.75;7.47;;;;;;;11.19;41.98;100568.38;10258116;28;20046;-60
2023/04/09 18:21:55;;;;;;;9.25;7.05;;;;;;;10.99;43.06;100565.91;10285343;28;20523;-61
2023/04/09 18:26:58;;;;;;;7.78;6.30;;;;;;;10.77;42.73;100576.59;10262771;28;20054;-60
2023/04/09 18:32:00;;;;;;;8.52;6.65;;;;;;;10.55;42.17;100573.38;10258486;28;20508;-61
2023/04/09 18:37:02;;;;;;;8.35;6.88;;;;;;;10.29;42.87;100574.66;10265635;28;20043;-61
2023/04/09 18:42:04;;;;;;;9.82;7.88;;;;;;;10.17;43.79;100587.47;10259388;28;20046;-59
2023/04/09 18:47:08;;;;;;;9.57;6.65;;;;;;;10.07;45.04;100591.44;10258677;28;20301;-60
2023/04/09 18:52:09;;;;;;;9.07;7.32;;;;;;;9.95;45.68;100592.00;10259781;28;20050;-59
2023/04/09 18:57:11;;;;;;;9.55;7.38;;;;;;;9.79;46.56;100589.22;10260889;28;20055;-60
2023/04/09 19:02:13;;;;;;;7.55;5.85;;;;;;;9.71;47.83;100591.34;10254974;28;20057;-59
2023/04/09 19:07:15;;;;;;;9.70;7.47;;;;;;;9.63;47.88;100591.69;10255873;28;20448;-59
2023/04/09 19:12:17;;;;;;;8.73;7.00;;;;;;;9.53;48.17;100593.00;10256927;28;20047;-59
2023/04/09 19:17:20;;;;;;;9.15;7.20;;;;;;;9.39;48.33;100598.00;10254921;28;20327;-60
2023/04/09 19:22:21;;;;;;;18.45;12.75;;;;;;;9.22;48.77;100608.31;10254947;28;20477;-59
2023/04/09 19:27:23;;;;;;;16.33;13.40;;;;;;;8.84;49.37;100617.78;10256418;28;20414;-59
2023/04/09 19:32:25;;;;;;;15.82;11.35;;;;;;;8.73;50.27;100612.16;10254580;28;20050;-59
2023/04/09 19:37:29;;;;;;;13.45;10.20;;;;;;;8.68;50.35;100611.53;10255300;28;20530;-59
2023/04/09 19:42:33;;;;;;;9.32;7.80;;;;;;;8.53;50.41;100611.28;10256248;28;20201;-60
2023/04/09 19:47:35;;;;;;;10.30;7.57;;;;;;;8.30;50.76;100613.97;10259013;28;20446;-60
2023/04/09 19:52:40;;;;;;;8.55;6.97;;;;;;;8.16;51.10;100617.09;10264942;28;20138;-59
2023/04/09 19:57:43;;;;;;;7.72;6.35;;;;;;;7.95;51.60;100612.72;10263641;28;20301;-59
2023/04/09 20:02:45;;;;;;;11.18;7.05;;;;;;;7.78;52.17;100608.13;10276009;28;20439;-59
2023/04/09 20:07:48;;;;;;;12.98;8.23;;;;;;;7.73;52.06;100599.63;10285804;28;20418;-60
2023/04/09 20:12:51;;;;;;;9.60;7.22;;;;;;;7.74;52.48;100608.31;10263536;28;20278;-59
2023/04/09 20:17:53;;;;;;;12.93;8.48;;;;;;;7.69;52.60;100611.06;10288682;28;20503;-59
2023/04/09 20:22:55;;;;;;;10.70;8.07;;;;;;;7.59;52.74;100607.09;10263041;28;20147;-59
2023/04/09 20:27:57;;;;;;;13.60;8.10;;;;;;;7.30;52.81;100620.34;10263970;28;20050;-59
2023/04/09 20:32:59;;;;;;;9.93;7.78;;;;;;;6.73;54.20;100622.31;10264444;28;20039;-59
2023/04/09 20:38:01;;;;;;;8.77;6.85;;;;;;;6.85;54.39;100624.53;10264530;28;20066;-59
2023/04/09 20:43:03;;;;;;;11.45;8.32;;;;;;;6.97;54.35;100611.09;10259738;28;20366;-59
2023/04/09 20:48:05;;;;;;;11.35;8.40;;;;;;;6.89;54.23;100610.50;10251351;28;20616;-59
2023/04/09 20:53:07;;;;;;;11.02;8.27;;;;;;;6.77;54.47;100608.31;10251967;28;20046;-59
2023/04/09 20:58:08;;;;;;;10.25;7.60;;;;;;;6.68;54.67;100611.22;10263241;28;20050;-60
2023/04/09 21:03:10;;;;;;;10.48;7.85;;;;;;;6.64;54.81;100610.47;10259767;28;20046;-60
2023/04/09 21:08:14;;;;;;;11.95;8.15;;;;;;;6.53;55.10;100617.75;10261551;28;20467;-59
2023/04/09 21:13:16;;;;;;;11.50;8.00;;;;;;;6.51;55.27;100611.75;10261269;28;20053;-60
2023/04/09 21:18:17;;;;;;;11.40;8.25;;;;;;;6.54;55.59;100610.81;10259767;28;20166;-59
2023/04/09 21:23:19;;;;;;;11.07;8.27;;;;;;;6.48;55.53;100611.88;10259593;28;20411;-59
2023/04/09 21:28:21;;;;;;;11.25;8.07;;;;;;;6.31;55.71;100604.63;10259289;28;20047;-59
2023/04/09 21:33:23;;;;;;;11.88;8.38;;;;;;;6.21;55.93;100613.56;10259372;28;20031;-59
2023/04/09 21:38:24;;;;;;;11.02;8.32;;;;;;;6.22;56.14;100610.09;10265704;28;20047;-59
2023/04/09 21:43:29;;;;;;;12.07;8.73;;;;;;;6.17;56.17;100608.50;10266431;28;20058;-59
2023/04/09 21:48:31;;;;;;;11.30;8.77;;;;;;;5.99;56.48;100609.06;10268974;28;20039;-59
2023/04/09 21:53:33;;;;;;;13.23;8.48;;;;;;;5.89;56.86;100613.72;10258450;28;20051;-59
2023/04/09 21:58:34;;;;;;;11.63;8.57;;;;;;;5.59;57.08;100599.03;10283261;28;20062;-59
2023/04/09 22:03:38;;;;;;;13.38;9.35;;;;;;;5.65;57.18;100598.84;10258486;28;20415;-59
2023/04/09 22:08:40;;;;;;;11.55;9.15;;;;;;;5.68;57.07;100596.16;10268550;28;20102;-59
2023/04/09 22:13:57;;;;;;;11.45;8.38;;;;;;;5.61;57.21;100602.44;10269738;28;20725;-59
2023/04/09 22:18:59;;;;;;;12.77;8.75;;;;;;;5.52;57.31;100605.28;10269612;28;20465;-59
2023/04/09 22:24:01;;;;;;;12.00;8.48;;;;;;;5.49;57.33;100602.78;10284610;28;20555;-59
2023/04/09 22:29:02;;;;;;;12.18;8.65;;;;;;;5.44;57.41;100607.25;10269848;28;20065;-59
2023/04/09 22:34:08;;;;;;;12.18;8.88;;;;;;;5.30;57.79;100602.44;10283277;28;20507;-59
2023/04/09 22:39:21;;;;;;;11.38;8.85;;;;;;;5.19;57.88;100606.22;10264902;28;20050;-59
2023/04/09 22:44:23;;;;;;;11.57;9.10;;;;;;;5.17;58.32;100605.41;10256141;28;20050;-59
2023/04/09 22:49:25;;;;;;;11.05;8.77;;;;;;;5.14;58.04;100600.31;10256081;28;20049;-59
2023/04/09 22:54:28;;;;;;;11.93;8.95;;;;;;;5.04;58.22;100598.84;10256536;28;20069;-59
2023/04/09 22:59:30;;;;;;;11.55;9.10;;;;;;;5.00;58.29;100605.00;10260105;28;20106;-59
2023/04/09 23:04:41;;;;;;;12.15;9.63;;;;;;;4.91;58.46;100607.84;10256393;28;20061;-59
2023/04/09 23:09:44;;;;;;;12.93;9.73;;;;;;;4.83;58.03;100604.59;10263933;28;20109;-59